Time,TemperatureF,DewpointF,PressureIn,WindDirection,WindDirectionDegrees,WindSpeedMPH,WindSpeedGustMPH,Humidity,HourlyPrecipIn,Conditions,Clouds,dailyrainin,SoftwareType,DateUTC
2013-08-20 00:02:00,77.7,46.4,30.71,SE,135,10.0,11.0,33,0.00,,,0.00,meteohub,2013-08-20 06:02:00,
2013-08-20 00:07:00,77.7,46.4,30.71,SE,135,10.0,11.0,33,0.00,,,0.00,meteohub,2013-08-20 06:07:00,
2013-08-20 00:12:00,77.7,45.5,30.71,East,90,10.0,12.0,32,0.00,,,0.00,meteohub,2013-08-20 06:12:00,
2013-08-20 00:17:00,77.5,46.2,30.71,ESE,113,11.0,12.0,33,0.00,,,0.00,meteohub,2013-08-20 06:17:00,
2013-08-20 00:22:00,77.5,46.2,30.71,East,90,10.0,12.0,33,0.00,,,0.00,meteohub,2013-08-20 06:22:00,
2013-08-20 00:27:00,77.4,45.1,30.71,East,90,11.0,12.0,32,0.00,,,0.00,meteohub,2013-08-20 06:27:00,
2013-08-20 00:32:00,77.4,45.1,30.71,East,90,12.0,12.0,32,0.00,,,0.00,meteohub,2013-08-20 06:32:00,
2013-08-20 00:37:00,77.0,45.7,30.71,East,90,11.0,12.0,33,0.00,,,0.00,meteohub,2013-08-20 06:37:00,
2013-08-20 00:42:00,76.3,45.9,30.71,East,90,13.0,13.0,34,0.00,,,0.00,meteohub,2013-08-20 06:42:00,
2013-08-20 00:47:00,75.9,45.5,30.71,East,90,14.0,14.0,34,0.00,,,0.00,meteohub,2013-08-20 06:47:00,
2013-08-20 00:52:00,75.9,45.5,30.71,East,90,15.0,15.0,34,0.00,,,0.00,meteohub,2013-08-20 06:52:00,
2013-08-20 00:57:00,76.3,45.9,30.71,East,90,11.0,16.0,34,0.00,,,0.00,meteohub,2013-08-20 06:57:00,
2013-08-20 01:02:00,76.5,46.0,30.71,East,90,8.0,16.0,34,0.00,,,0.00,meteohub,2013-08-20 07:02:00,
2013-08-20 01:07:00,76.8,46.4,30.71,ESE,113,9.0,16.0,34,0.00,,,0.00,meteohub,2013-08-20 07:07:00,
2013-08-20 01:12:00,76.8,45.5,30.71,East,90,9.0,13.0,33,0.00,,,0.00,meteohub,2013-08-20 07:12:00,
2013-08-20 01:17:00,77.0,45.0,30.71,South,180,5.0,10.0,32,0.00,,,0.00,meteohub,2013-08-20 07:17:00,
2013-08-20 01:22:00,76.3,45.9,30.71,East,90,6.0,10.0,34,0.00,,,0.00,meteohub,2013-08-20 07:22:00,
2013-08-20 01:27:00,75.9,45.5,30.70,East,90,8.0,10.0,34,0.00,,,0.00,meteohub,2013-08-20 07:27:00,
2013-08-20 01:32:00,76.8,45.5,30.71,SE,135,9.0,10.0,33,0.00,,,0.00,meteohub,2013-08-20 07:32:00,
2013-08-20 01:37:00,77.2,44.2,30.71,SE,135,6.0,10.0,31,0.00,,,0.00,meteohub,2013-08-20 07:37:00,
2013-08-20 01:42:00,77.4,44.4,30.71,NE,45,8.0,11.0,31,0.00,,,0.00,meteohub,2013-08-20 07:42:00,
2013-08-20 01:47:00,77.5,44.6,30.71,East,90,8.0,11.0,31,0.00,,,0.00,meteohub,2013-08-20 07:47:00,
2013-08-20 01:52:00,77.7,43.9,30.71,SE,135,9.0,13.0,30,0.00,,,0.00,meteohub,2013-08-20 07:52:00,
2013-08-20 01:57:00,77.9,44.1,30.71,NE,45,4.0,13.0,30,0.00,,,0.00,meteohub,2013-08-20 07:57:00,
2013-08-20 02:02:00,77.7,43.9,30.71,East,90,6.0,13.0,30,0.00,,,0.00,meteohub,2013-08-20 08:02:00,
2013-08-20 02:07:00,77.4,44.4,30.71,SE,135,4.0,10.0,31,0.00,,,0.00,meteohub,2013-08-20 08:07:00,
2013-08-20 02:12:00,77.2,45.0,30.71,East,90,10.0,12.0,32,0.00,,,0.00,meteohub,2013-08-20 08:12:00,
2013-08-20 02:17:00,77.0,45.7,30.71,East,90,12.0,12.0,33,0.00,,,0.00,meteohub,2013-08-20 08:17:00,
2013-08-20 02:22:00,77.2,45.9,30.70,East,90,12.0,13.0,33,0.00,,,0.00,meteohub,2013-08-20 08:22:00,
2013-08-20 02:28:00,77.2,45.0,30.70,East,90,11.0,14.0,32,0.00,,,0.00,meteohub,2013-08-20 08:28:00,
2013-08-20 02:33:00,77.2,45.0,30.71,East,90,8.0,15.0,32,0.00,,,0.00,meteohub,2013-08-20 08:33:00,
2013-08-20 02:38:00,77.4,45.1,30.70,East,90,10.0,15.0,32,0.00,,,0.00,meteohub,2013-08-20 08:38:00,
2013-08-20 02:43:00,77.4,45.1,30.71,SE,135,8.0,15.0,32,0.00,,,0.00,meteohub,2013-08-20 08:43:00,
2013-08-20 02:48:00,77.4,45.1,30.71,South,180,4.0,14.0,32,0.00,,,0.00,meteohub,2013-08-20 08:48:00,
2013-08-20 04:57:00,74.7,45.1,30.70,East,90,8.0,11.0,35,0.00,,,0.00,meteohub,2013-08-20 10:57:00,
2013-08-20 05:02:00,74.8,45.3,30.71,East,90,6.0,11.0,35,0.00,,,0.00,meteohub,2013-08-20 11:02:00,
2013-08-20 05:07:00,74.8,45.3,30.71,East,90,8.0,10.0,35,0.00,,,0.00,meteohub,2013-08-20 11:07:00,
2013-08-20 05:12:00,74.5,45.0,30.71,East,90,7.0,10.0,35,0.00,,,0.00,meteohub,2013-08-20 11:12:00,
2013-08-20 05:17:00,74.1,44.8,30.71,East,90,5.0,8.0,35,0.00,,,0.00,meteohub,2013-08-20 11:17:00,
2013-08-20 05:22:00,73.6,45.0,30.71,East,90,7.0,8.0,36,0.00,,,0.00,meteohub,2013-08-20 11:22:00,
2013-08-20 05:27:00,73.4,44.8,30.71,ENE,68,7.0,8.0,36,0.00,,,0.00,meteohub,2013-08-20 11:27:00,
2013-08-20 05:32:00,73.0,43.7,30.71,NE,45,4.0,8.0,35,0.00,,,0.00,meteohub,2013-08-20 11:32:00,
2013-08-20 05:37:00,72.9,43.5,30.71,East,90,9.0,9.0,35,0.00,,,0.00,meteohub,2013-08-20 11:37:00,
2013-08-20 05:42:00,72.9,44.4,30.71,East,90,8.0,9.0,36,0.00,,,0.00,meteohub,2013-08-20 11:42:00,
2013-08-20 05:47:00,73.2,43.9,30.71,ENE,68,8.0,9.0,35,0.00,,,0.00,meteohub,2013-08-20 11:47:00,
2013-08-20 05:52:00,73.8,45.1,30.71,East,90,7.0,9.0,36,0.00,,,0.00,meteohub,2013-08-20 11:52:00,
2013-08-20 05:57:00,73.8,45.1,30.71,East,90,8.0,9.0,36,0.00,,,0.00,meteohub,2013-08-20 11:57:00,
2013-08-20 06:03:00,73.8,45.1,30.71,East,90,8.0,9.0,36,0.00,,,0.00,meteohub,2013-08-20 12:03:00,
2013-08-20 06:08:00,73.8,45.1,30.71,East,90,9.0,9.0,36,0.00,,,0.00,meteohub,2013-08-20 12:08:00,
2013-08-20 06:13:00,73.6,45.0,30.71,East,90,9.0,9.0,36,0.00,,,0.00,meteohub,2013-08-20 12:13:00,
2013-08-20 06:18:00,73.8,45.1,30.71,East,90,10.0,10.0,36,0.00,,,0.00,meteohub,2013-08-20 12:18:00,
2013-08-20 06:23:00,73.8,45.1,30.71,ESE,113,10.0,11.0,36,0.00,,,0.00,meteohub,2013-08-20 12:23:00,
2013-08-20 06:28:00,73.6,45.0,30.72,East,90,8.0,11.0,36,0.00,,,0.00,meteohub,2013-08-20 12:28:00,
2013-08-20 06:33:00,73.9,45.3,30.72,ENE,68,8.0,11.0,36,0.00,,,0.00,meteohub,2013-08-20 12:33:00,
2013-08-20 06:38:00,74.1,45.5,30.71,East,90,4.0,11.0,36,0.00,,,0.00,meteohub,2013-08-20 12:38:00,
2013-08-20 06:43:00,73.8,45.1,30.72,East,90,6.0,11.0,36,0.00,,,0.00,meteohub,2013-08-20 12:43:00,
2013-08-20 06:48:00,73.6,45.0,30.72,East,90,7.0,8.0,36,0.00,,,0.00,meteohub,2013-08-20 12:48:00,
2013-08-20 06:53:00,73.2,43.9,30.72,East,90,7.0,8.0,35,0.00,,,0.00,meteohub,2013-08-20 12:53:00,
2013-08-20 06:58:00,73.0,44.4,30.72,East,90,6.0,8.0,36,0.00,,,0.00,meteohub,2013-08-20 12:58:00,
2013-08-20 07:03:00,72.9,44.4,30.72,East,90,4.0,8.0,36,0.00,,,0.00,meteohub,2013-08-20 13:03:00,
2013-08-20 07:08:00,73.2,44.6,30.72,East,90,3.0,8.0,36,0.00,,,0.00,meteohub,2013-08-20 13:08:00,
2013-08-20 07:14:00,73.4,45.5,30.72,East,90,4.0,7.0,37,0.00,,,0.00,meteohub,2013-08-20 13:14:00,
2013-08-20 07:19:00,73.8,45.9,30.72,SE,135,2.0,6.0,37,0.00,,,0.00,meteohub,2013-08-20 13:19:00,
2013-08-20 07:24:00,73.8,45.9,30.72,SE,135,3.0,4.0,37,0.00,,,0.00,meteohub,2013-08-20 13:24:00,
2013-08-20 07:30:00,73.4,45.5,30.73,SE,135,2.0,4.0,37,0.00,,,0.00,meteohub,2013-08-20 13:30:00,
2013-08-20 07:35:00,73.6,45.7,30.73,SE,135,3.0,3.0,37,0.00,,,0.00,meteohub,2013-08-20 13:35:00,
2013-08-20 07:40:00,73.6,45.7,30.73,ENE,68,4.0,4.0,37,0.00,,,0.00,meteohub,2013-08-20 13:40:00,
2013-08-20 07:46:00,73.8,45.9,30.73,East,90,4.0,6.0,37,0.00,,,0.00,meteohub,2013-08-20 13:46:00,
2013-08-20 07:51:00,74.1,46.2,30.73,SE,135,4.0,6.0,37,0.00,,,0.00,meteohub,2013-08-20 13:51:00,
2013-08-20 07:56:00,74.5,46.6,30.73,East,90,4.0,6.0,37,0.00,,,0.00,meteohub,2013-08-20 13:56:00,
2013-08-20 08:01:00,74.7,46.6,30.73,East,90,5.0,6.0,37,0.00,,,0.00,meteohub,2013-08-20 14:01:00,
2013-08-20 08:06:00,74.7,46.6,30.73,East,90,5.0,6.0,37,0.00,,,0.00,meteohub,2013-08-20 14:06:00,
2013-08-20 08:12:00,75.2,46.4,30.73,East,90,4.0,7.0,36,0.00,,,0.00,meteohub,2013-08-20 14:12:00,
2013-08-20 08:17:00,75.2,46.4,30.73,SE,135,7.0,7.0,36,0.00,,,0.00,meteohub,2013-08-20 14:17:00,
2013-08-20 08:22:00,75.4,46.6,30.73,East,90,4.0,7.0,36,0.00,,,0.00,meteohub,2013-08-20 14:22:00,
2013-08-20 08:27:00,75.7,46.2,30.73,East,90,4.0,7.0,35,0.00,,,0.00,meteohub,2013-08-20 14:27:00,
2013-08-20 08:33:00,75.9,47.1,30.73,East,90,6.0,7.0,36,0.00,,,0.00,meteohub,2013-08-20 14:33:00,
2013-08-20 08:38:00,76.1,46.4,30.73,East,90,6.0,7.0,35,0.00,,,0.00,meteohub,2013-08-20 14:38:00,
2013-08-20 08:44:00,76.3,46.6,30.73,SE,135,4.0,7.0,35,0.00,,,0.00,meteohub,2013-08-20 14:44:00,
2013-08-20 08:49:00,76.5,46.8,30.73,ESE,113,4.0,6.0,35,0.00,,,0.00,meteohub,2013-08-20 14:49:00,
2013-08-20 08:54:00,76.6,47.7,30.73,East,90,2.0,6.0,36,0.00,,,0.00,meteohub,2013-08-20 14:54:00,
2013-08-20 08:59:00,76.5,47.5,30.73,West,270,2.0,5.0,36,0.00,,,0.00,meteohub,2013-08-20 14:59:00,
2013-08-20 09:05:00,76.5,47.5,30.74,West,270,2.0,4.0,36,0.00,,,0.00,meteohub,2013-08-20 15:05:00,
2013-08-20 09:10:00,77.4,47.5,30.74,SW,225,2.0,3.0,35,0.00,,,0.00,meteohub,2013-08-20 15:10:00,
2013-08-20 09:15:00,78.1,48.2,30.73,South,180,2.0,4.0,35,0.00,,,0.00,meteohub,2013-08-20 15:15:00,
2013-08-20 09:20:00,78.8,47.3,30.73,SSE,158,4.0,5.0,33,0.00,,,0.00,meteohub,2013-08-20 15:20:00,
2013-08-20 09:26:00,79.5,47.1,30.73,South,180,4.0,5.0,32,0.00,,,0.00,meteohub,2013-08-20 15:26:00,
2013-08-20 09:31:00,79.7,47.3,30.73,West,270,7.0,7.0,32,0.00,,,0.00,meteohub,2013-08-20 15:31:00,
2013-08-20 09:36:00,79.9,47.3,30.73,SW,225,10.0,10.0,32,0.00,,,0.00,meteohub,2013-08-20 15:36:00,
2013-08-20 09:41:00,79.7,47.3,30.73,West,270,5.0,12.0,32,0.00,,,0.00,meteohub,2013-08-20 15:41:00,
2013-08-20 09:46:00,79.9,47.3,30.73,NW,315,4.0,12.0,32,0.00,,,0.00,meteohub,2013-08-20 15:46:00,
2013-08-20 09:52:00,80.1,46.8,30.74,West,270,11.0,14.0,31,0.00,,,0.00,meteohub,2013-08-20 15:52:00,
2013-08-20 09:57:00,79.7,47.3,30.74,West,270,6.0,14.0,32,0.00,,,0.00,meteohub,2013-08-20 15:57:00,
2013-08-20 10:02:00,79.3,46.9,30.74,West,270,8.0,14.0,32,0.00,,,0.00,meteohub,2013-08-20 16:02:00,
2013-08-20 10:07:00,79.2,46.8,30.74,NW,315,9.0,11.0,32,0.00,,,0.00,meteohub,2013-08-20 16:07:00,
2013-08-20 10:12:00,79.5,47.1,30.74,West,270,10.0,12.0,32,0.00,,,0.00,meteohub,2013-08-20 16:12:00,
2013-08-20 10:18:00,80.2,47.7,30.74,West,270,12.0,13.0,32,0.00,,,0.00,meteohub,2013-08-20 16:18:00,
2013-08-20 10:23:00,80.4,47.8,30.74,WNW,293,10.0,13.0,32,0.00,,,0.00,meteohub,2013-08-20 16:23:00,
2013-08-20 10:28:00,80.6,47.1,30.74,West,270,9.0,15.0,31,0.00,,,0.00,meteohub,2013-08-20 16:28:00,
2013-08-20 10:34:00,80.4,47.8,30.74,WNW,293,14.0,15.0,32,0.00,,,0.00,meteohub,2013-08-20 16:34:00,
2013-08-20 10:39:00,80.8,46.4,30.74,NW,315,8.0,15.0,30,0.00,,,0.00,meteohub,2013-08-20 16:39:00,
2013-08-20 10:44:00,81.3,46.9,30.74,West,270,4.0,15.0,30,0.00,,,0.00,meteohub,2013-08-20 16:44:00,
2013-08-20 10:49:00,81.5,48.0,30.74,West,270,11.0,15.0,31,0.00,,,0.00,meteohub,2013-08-20 16:49:00,
2013-08-20 10:54:00,81.5,48.0,30.74,West,270,9.0,14.0,31,0.00,,,0.00,meteohub,2013-08-20 16:54:00,
2013-08-20 11:00:00,81.3,47.8,30.74,North,0,11.0,12.0,31,0.00,,,0.00,meteohub,2013-08-20 17:00:00,
2013-08-20 11:05:00,81.3,47.8,30.74,NW,315,12.0,13.0,31,0.00,,,0.00,meteohub,2013-08-20 17:05:00,
2013-08-20 11:10:00,81.1,47.7,30.74,West,270,9.0,13.0,31,0.00,,,0.00,meteohub,2013-08-20 17:10:00,
2013-08-20 11:15:00,81.7,48.0,30.74,West,270,8.0,13.0,31,0.00,,,0.00,meteohub,2013-08-20 17:15:00,
2013-08-20 11:21:00,82.6,49.8,30.74,SW,225,8.0,12.0,32,0.00,,,0.00,meteohub,2013-08-20 17:21:00,
2013-08-20 11:26:00,82.6,48.9,30.74,West,270,16.0,16.0,31,0.00,,,0.00,meteohub,2013-08-20 17:26:00,
2013-08-20 11:32:00,82.4,48.7,30.74,NW,315,11.0,16.0,31,0.00,,,0.00,meteohub,2013-08-20 17:32:00,
2013-08-20 11:37:00,82.6,48.9,30.74,NW,315,5.0,16.0,31,0.00,,,0.00,meteohub,2013-08-20 17:37:00,
2013-08-20 11:42:00,83.5,48.7,30.74,SW,225,8.0,16.0,30,0.00,,,0.00,meteohub,2013-08-20 17:42:00,
2013-08-20 11:48:00,83.7,48.9,30.74,West,270,11.0,16.0,30,0.00,,,0.00,meteohub,2013-08-20 17:48:00,
2013-08-20 11:53:00,83.5,48.7,30.73,NW,315,11.0,16.0,30,0.00,,,0.00,meteohub,2013-08-20 17:53:00,
2013-08-20 11:58:00,83.7,48.9,30.73,West,270,3.0,17.0,30,0.00,,,0.00,meteohub,2013-08-20 17:58:00,
2013-08-20 12:04:00,83.8,49.1,30.73,NW,315,6.0,17.0,30,0.00,,,0.00,meteohub,2013-08-20 18:04:00,
2013-08-20 12:09:00,84.4,48.7,30.73,WSW,248,12.0,16.0,29,0.00,,,0.00,meteohub,2013-08-20 18:09:00,
2013-08-20 12:15:00,84.9,48.2,30.73,West,270,13.0,15.0,28,0.00,,,0.00,meteohub,2013-08-20 18:15:00,
2013-08-20 12:20:00,84.6,47.8,30.73,West,270,9.0,16.0,28,0.00,,,0.00,meteohub,2013-08-20 18:20:00,
2013-08-20 12:25:00,84.2,47.5,30.73,West,270,8.0,17.0,28,0.00,,,0.00,meteohub,2013-08-20 18:25:00,
2013-08-20 12:31:00,84.6,48.7,30.72,North,0,3.0,16.0,29,0.00,,,0.00,meteohub,2013-08-20 18:31:00,
2013-08-20 12:36:00,86.7,48.7,30.72,NW,315,9.0,9.0,27,0.00,,,0.00,meteohub,2013-08-20 18:36:00,
2013-08-20 12:41:00,86.2,47.3,30.72,West,270,15.0,17.0,26,0.00,,,0.00,meteohub,2013-08-20 18:41:00,
2013-08-20 12:47:00,85.6,48.7,30.73,West,270,4.0,17.0,28,0.00,,,0.00,meteohub,2013-08-20 18:47:00,
2013-08-20 12:52:00,86.0,48.2,30.72,NW,315,13.0,18.0,27,0.00,,,0.00,meteohub,2013-08-20 18:52:00,
2013-08-20 12:57:00,86.5,47.7,30.72,NW,315,11.0,18.0,26,0.00,,,0.00,meteohub,2013-08-20 18:57:00,
2013-08-20 13:02:00,86.7,47.7,30.71,North,0,10.0,18.0,26,0.00,,,0.00,meteohub,2013-08-20 19:02:00,
2013-08-20 13:08:00,86.5,47.7,30.71,NW,315,7.0,18.0,26,0.00,,,0.00,meteohub,2013-08-20 19:08:00,
2013-08-20 13:13:00,87.6,48.6,30.71,NW,315,9.0,18.0,26,0.00,,,0.00,meteohub,2013-08-20 19:13:00,
2013-08-20 13:19:00,88.5,47.1,30.71,East,90,4.0,14.0,24,0.00,,,0.00,meteohub,2013-08-20 19:19:00,
2013-08-20 13:24:00,90.1,47.3,30.71,West,270,16.0,16.0,23,0.00,,,0.00,meteohub,2013-08-20 19:24:00,
2013-08-20 13:29:00,88.9,47.5,30.71,West,270,16.0,16.0,24,0.00,,,0.00,meteohub,2013-08-20 19:29:00,
2013-08-20 13:35:00,87.6,47.5,30.71,SW,225,13.0,20.0,25,0.00,,,0.00,meteohub,2013-08-20 19:35:00,
2013-08-20 13:40:00,88.0,46.6,30.71,West,270,11.0,20.0,24,0.00,,,0.00,meteohub,2013-08-20 19:40:00,
2013-08-20 13:45:00,87.8,46.6,30.70,West,270,23.0,23.0,24,0.00,,,0.00,meteohub,2013-08-20 19:45:00,
2013-08-20 13:51:00,87.8,46.6,30.71,West,270,20.0,23.0,24,0.00,,,0.00,meteohub,2013-08-20 19:51:00,
2013-08-20 13:56:00,87.4,47.3,30.71,NW,315,10.0,23.0,25,0.00,,,0.00,meteohub,2013-08-20 19:56:00,
2013-08-20 14:02:00,87.8,46.6,30.70,West,270,25.0,25.0,24,0.00,,,0.00,meteohub,2013-08-20 20:02:00,
2013-08-20 14:07:00,87.8,46.6,30.70,West,270,25.0,25.0,24,0.00,,,0.00,meteohub,2013-08-20 20:07:00,
2013-08-20 14:12:00,87.3,47.1,30.70,West,270,31.0,31.0,25,0.00,,,0.00,meteohub,2013-08-20 20:12:00,
2013-08-20 14:18:00,86.0,47.1,30.71,West,270,22.0,31.0,26,0.00,,,0.00,meteohub,2013-08-20 20:18:00,
2013-08-20 14:23:00,84.9,47.1,30.71,NW,315,23.0,31.0,27,0.00,,,0.00,meteohub,2013-08-20 20:23:00,
2013-08-20 14:29:00,84.2,46.6,30.71,West,270,14.0,31.0,27,0.00,,,0.00,meteohub,2013-08-20 20:29:00,
2013-08-20 14:34:00,84.0,47.5,30.71,NW,315,21.0,23.0,28,0.00,,,0.00,meteohub,2013-08-20 20:34:00,
2013-08-20 14:39:00,83.8,48.2,30.71,West,270,12.0,23.0,29,0.00,,,0.00,meteohub,2013-08-20 20:39:00,
2013-08-20 14:45:00,83.8,48.2,30.71,WSW,248,14.0,23.0,29,0.00,,,0.00,meteohub,2013-08-20 20:45:00,
2013-08-20 14:50:00,83.8,47.3,30.71,West,270,16.0,19.0,28,0.00,,,0.00,meteohub,2013-08-20 20:50:00,
2013-08-20 14:56:00,83.5,47.8,30.71,West,270,17.0,19.0,29,0.00,,,0.00,meteohub,2013-08-20 20:56:00,
2013-08-20 15:01:00,83.3,47.7,30.71,North,0,9.0,18.0,29,0.00,,,0.00,meteohub,2013-08-20 21:01:00,
2013-08-20 15:07:00,83.3,47.7,30.71,West,270,16.0,17.0,29,0.00,,,0.00,meteohub,2013-08-20 21:07:00,
2013-08-20 15:12:00,83.1,47.7,30.71,NW,315,10.0,17.0,29,0.00,,,0.00,meteohub,2013-08-20 21:12:00,
2013-08-20 15:17:00,82.9,47.5,30.71,West,270,10.0,16.0,29,0.00,,,0.00,meteohub,2013-08-20 21:17:00,
2013-08-20 15:22:00,82.8,47.3,30.71,West,270,8.0,16.0,29,0.00,,,0.00,meteohub,2013-08-20 21:22:00,
2013-08-20 15:27:00,82.6,47.1,30.71,West,270,6.0,12.0,29,0.00,,,0.00,meteohub,2013-08-20 21:27:00,
2013-08-20 15:33:00,81.9,48.2,30.71,SE,135,11.0,11.0,31,0.00,,,0.00,meteohub,2013-08-20 21:33:00,
2013-08-20 15:38:00,80.8,48.2,30.71,South,180,11.0,14.0,32,0.00,,,0.00,meteohub,2013-08-20 21:38:00,
2013-08-20 15:43:00,80.2,49.3,30.71,South,180,8.0,14.0,34,0.00,,,0.00,meteohub,2013-08-20 21:43:00,
2013-08-20 15:49:00,79.7,48.9,30.70,SE,135,12.0,14.0,34,0.00,,,0.00,meteohub,2013-08-20 21:49:00,
2013-08-20 15:54:00,79.7,48.9,30.70,East,90,8.0,15.0,34,0.00,,,0.00,meteohub,2013-08-20 21:54:00,
2013-08-20 15:59:00,80.1,49.1,30.69,SE,135,5.0,15.0,34,0.00,,,0.00,meteohub,2013-08-20 21:59:00,
2013-08-20 16:05:00,80.1,49.1,30.69,East,90,4.0,15.0,34,0.00,,,0.00,meteohub,2013-08-20 22:05:00,
2013-08-20 16:10:00,80.4,49.5,30.69,SE,135,10.0,10.0,34,0.00,,,0.00,meteohub,2013-08-20 22:10:00,
2013-08-20 16:16:00,80.4,49.5,30.69,East,90,6.0,11.0,34,0.00,,,0.00,meteohub,2013-08-20 22:16:00,
2013-08-20 16:21:00,80.4,48.7,30.69,East,90,3.0,11.0,33,0.00,,,0.00,meteohub,2013-08-20 22:21:00,
2013-08-20 16:27:00,80.8,48.2,30.69,NW,315,2.0,11.0,32,0.00,,,0.00,meteohub,2013-08-20 22:27:00,
2013-08-20 16:32:00,81.3,47.8,30.69,NW,315,6.0,7.0,31,0.00,,,0.00,meteohub,2013-08-20 22:32:00,
2013-08-20 16:37:00,81.5,48.0,30.69,West,270,5.0,9.0,31,0.00,,,0.00,meteohub,2013-08-20 22:37:00,
2013-08-20 16:42:00,81.7,48.0,30.69,West,270,6.0,9.0,31,0.00,,,0.00,meteohub,2013-08-20 22:42:00,
2013-08-20 16:47:00,82.2,48.6,30.69,SW,225,2.0,9.0,31,0.00,,,0.00,meteohub,2013-08-20 22:47:00,
2013-08-20 16:52:00,83.5,50.5,30.69,SW,225,7.0,8.0,32,0.00,,,0.00,meteohub,2013-08-20 22:52:00,
2013-08-20 16:57:00,83.8,50.9,30.69,SW,225,4.0,8.0,32,0.00,,,0.00,meteohub,2013-08-20 22:57:00,
2013-08-20 17:02:00,85.1,50.2,30.69,SW,225,5.0,7.0,30,0.00,,,0.00,meteohub,2013-08-20 23:02:00,
2013-08-20 17:07:00,86.2,50.2,30.69,SW,225,2.0,7.0,29,0.00,,,0.00,meteohub,2013-08-20 23:07:00,
2013-08-20 17:12:00,86.5,48.6,30.69,NE,45,5.0,5.0,27,0.00,,,0.00,meteohub,2013-08-20 23:12:00,
2013-08-20 17:17:00,86.5,48.6,30.68,SE,135,8.0,8.0,27,0.00,,,0.00,meteohub,2013-08-20 23:17:00,
2013-08-20 17:22:00,86.2,48.2,30.68,South,180,5.0,8.0,27,0.00,,,0.00,meteohub,2013-08-20 23:22:00,
2013-08-20 17:28:00,86.7,48.7,30.68,SE,135,5.0,8.0,27,0.00,,,0.00,meteohub,2013-08-20 23:28:00,
2013-08-20 17:33:00,87.3,48.2,30.68,SE,135,4.0,8.0,26,0.00,,,0.00,meteohub,2013-08-20 23:33:00,
2013-08-20 17:38:00,87.6,47.5,30.68,SE,135,4.0,6.0,25,0.00,,,0.00,meteohub,2013-08-20 23:38:00,
2013-08-20 17:43:00,87.4,47.3,30.68,SW,225,4.0,7.0,25,0.00,,,0.00,meteohub,2013-08-20 23:43:00,
2013-08-20 17:49:00,88.0,45.5,30.67,South,180,8.0,8.0,23,0.00,,,0.00,meteohub,2013-08-20 23:49:00,
2013-08-20 17:54:00,88.0,44.4,30.68,West,270,4.0,8.0,22,0.00,,,0.00,meteohub,2013-08-20 23:54:00,
2013-08-20 17:59:00,88.2,45.7,30.68,East,90,3.0,8.0,23,0.00,,,0.00,meteohub,2013-08-20 23:59:00,
2013-08-20 18:05:00,88.2,45.7,30.67,SE,135,2.0,8.0,23,0.00,,,0.00,meteohub,2013-08-21 00:05:00,
2013-08-20 18:10:00,88.2,45.7,30.67,East,90,4.0,6.0,23,0.00,,,0.00,meteohub,2013-08-21 00:10:00,
2013-08-20 18:15:00,88.9,45.1,30.67,WSW,248,4.0,7.0,22,0.00,,,0.00,meteohub,2013-08-21 00:15:00,
2013-08-20 18:20:00,90.0,44.8,30.67,South,180,5.0,8.0,21,0.00,,,0.00,meteohub,2013-08-21 00:20:00,
2013-08-20 18:26:00,89.2,45.5,30.67,WSW,248,6.0,8.0,22,0.00,,,0.00,meteohub,2013-08-21 00:26:00,
2013-08-20 18:31:00,88.5,44.8,30.67,West,270,10.0,11.0,22,0.00,,,0.00,meteohub,2013-08-21 00:31:00,
2013-08-20 18:36:00,88.5,46.0,30.66,West,270,13.0,13.0,23,0.00,,,0.00,meteohub,2013-08-21 00:36:00,
2013-08-20 18:41:00,88.0,45.5,30.67,West,270,9.0,16.0,23,0.00,,,0.00,meteohub,2013-08-21 00:41:00,
2013-08-20 18:46:00,88.5,46.0,30.67,NW,315,8.0,16.0,23,0.00,,,0.00,meteohub,2013-08-21 00:46:00,
2013-08-20 18:51:00,89.1,45.3,30.67,NW,315,8.0,16.0,22,0.00,,,0.00,meteohub,2013-08-21 00:51:00,
2013-08-20 18:57:00,89.6,44.4,30.67,West,270,6.0,9.0,21,0.00,,,0.00,meteohub,2013-08-21 00:57:00,
2013-08-20 19:02:00,89.4,45.5,30.67,SSE,158,4.0,8.0,22,0.00,,,0.00,meteohub,2013-08-21 01:02:00,
2013-08-20 19:07:00,88.5,44.8,30.67,NW,315,9.0,9.0,22,0.00,,,0.00,meteohub,2013-08-21 01:07:00,
2013-08-20 19:12:00,87.4,45.1,30.67,SE,135,5.0,9.0,23,0.00,,,0.00,meteohub,2013-08-21 01:12:00,
2013-08-20 19:17:00,86.2,45.1,30.67,South,180,6.0,9.0,24,0.00,,,0.00,meteohub,2013-08-21 01:17:00,
2013-08-20 19:20:00,86.0,45.0,30.66,East,90,9.0,9.0,24,0.00,,,0.00,meteohub,2013-08-21 01:20:00,
2013-08-20 19:26:00,84.7,47.1,30.67,East,90,13.0,13.0,27,0.00,,,0.00,meteohub,2013-08-21 01:26:00,
2013-08-20 19:31:00,83.1,48.6,30.67,East,90,15.0,18.0,30,0.00,,,0.00,meteohub,2013-08-21 01:31:00,
2013-08-20 19:36:00,82.0,45.7,30.67,East,90,16.0,18.0,28,0.00,,,0.00,meteohub,2013-08-21 01:36:00,
2013-08-20 19:41:00,81.3,46.0,30.67,East,90,17.0,18.0,29,0.00,,,0.00,meteohub,2013-08-21 01:41:00,
2013-08-20 19:47:00,80.8,45.5,30.67,East,90,14.0,17.0,29,0.00,,,0.00,meteohub,2013-08-21 01:47:00,
2013-08-20 19:52:00,80.6,45.3,30.67,ESE,113,16.0,17.0,29,0.00,,,0.00,meteohub,2013-08-21 01:52:00,
2013-08-20 19:57:00,80.4,46.2,30.67,East,90,11.0,17.0,30,0.00,,,0.00,meteohub,2013-08-21 01:57:00,
2013-08-20 20:02:00,80.4,45.3,30.67,East,90,12.0,17.0,29,0.00,,,0.00,meteohub,2013-08-21 02:02:00,
2013-08-20 20:07:00,80.2,45.1,30.67,East,90,13.0,17.0,29,0.00,,,0.00,meteohub,2013-08-21 02:07:00,
2013-08-20 20:12:00,80.1,45.0,30.67,East,90,10.0,15.0,29,0.00,,,0.00,meteohub,2013-08-21 02:12:00,
2013-08-20 20:17:00,80.1,45.0,30.67,East,90,10.0,15.0,29,0.00,,,0.00,meteohub,2013-08-21 02:17:00,
2013-08-20 20:22:00,80.1,45.0,30.67,East,90,10.0,13.0,29,0.00,,,0.00,meteohub,2013-08-21 02:22:00,
2013-08-20 20:27:00,79.7,44.6,30.68,East,90,8.0,14.0,29,0.00,,,0.00,meteohub,2013-08-21 02:27:00,
2013-08-20 20:32:00,79.7,44.6,30.68,East,90,9.0,14.0,29,0.00,,,0.00,meteohub,2013-08-21 02:32:00,
2013-08-20 20:37:00,79.0,44.1,30.67,East,90,8.0,14.0,29,0.00,,,0.00,meteohub,2013-08-21 02:37:00,
2013-08-20 20:42:00,78.6,44.6,30.68,East,90,11.0,11.0,30,0.00,,,0.00,meteohub,2013-08-21 02:42:00,
2013-08-20 20:47:00,78.3,44.2,30.67,East,90,9.0,12.0,30,0.00,,,0.00,meteohub,2013-08-21 02:47:00,
2013-08-20 20:52:00,78.1,45.0,30.68,East,90,7.0,12.0,31,0.00,,,0.00,meteohub,2013-08-21 02:52:00,
2013-08-20 20:57:00,77.9,44.1,30.68,East,90,12.0,12.0,30,0.00,,,0.00,meteohub,2013-08-21 02:57:00,
2013-08-20 21:02:00,77.9,44.1,30.68,East,90,13.0,13.0,30,0.00,,,0.00,meteohub,2013-08-21 03:02:00,
2013-08-20 21:07:00,77.5,43.7,30.69,East,90,10.0,16.0,30,0.00,,,0.00,meteohub,2013-08-21 03:07:00,
2013-08-20 21:12:00,77.7,43.9,30.69,East,90,8.0,16.0,30,0.00,,,0.00,meteohub,2013-08-21 03:12:00,
2013-08-20 21:17:00,77.5,43.7,30.69,East,90,13.0,16.0,30,0.00,,,0.00,meteohub,2013-08-21 03:17:00,
2013-08-20 21:22:00,77.2,44.2,30.69,East,90,14.0,15.0,31,0.00,,,0.00,meteohub,2013-08-21 03:22:00,
2013-08-20 21:27:00,77.0,44.1,30.69,East,90,15.0,15.0,31,0.00,,,0.00,meteohub,2013-08-21 03:27:00,
2013-08-20 21:32:00,76.8,44.8,30.69,East,90,13.0,15.0,32,0.00,,,0.00,meteohub,2013-08-21 03:32:00,
2013-08-20 21:37:00,76.8,44.8,30.69,East,90,11.0,15.0,32,0.00,,,0.00,meteohub,2013-08-21 03:37:00,
2013-08-20 21:42:00,76.8,44.8,30.69,East,90,13.0,15.0,32,0.00,,,0.00,meteohub,2013-08-21 03:42:00,
2013-08-20 21:47:00,76.8,44.8,30.70,ESE,113,11.0,14.0,32,0.00,,,0.00,meteohub,2013-08-21 03:47:00,
2013-08-20 21:52:00,77.0,43.2,30.70,East,90,10.0,14.0,30,0.00,,,0.00,meteohub,2013-08-21 03:52:00,
2013-08-20 21:57:00,77.0,43.2,30.70,East,90,10.0,14.0,30,0.00,,,0.00,meteohub,2013-08-21 03:57:00,
2013-08-20 22:01:00,77.0,43.2,30.70,East,90,10.0,14.0,30,0.00,,,0.00,meteohub,2013-08-21 04:01:00,
2013-08-20 22:02:00,77.0,43.2,30.70,East,90,10.0,14.0,30,0.00,,,0.00,meteohub,2013-08-21 04:02:00,
2013-08-20 22:03:00,77.0,43.2,30.70,East,90,10.0,14.0,30,0.00,,,0.00,meteohub,2013-08-21 04:03:00,
2013-08-20 22:08:00,76.8,43.9,30.70,East,90,11.0,13.0,31,0.00,,,0.00,meteohub,2013-08-21 04:08:00,
2013-08-20 22:13:00,76.8,43.9,30.70,East,90,14.0,14.0,31,0.00,,,0.00,meteohub,2013-08-21 04:13:00,
2013-08-20 22:18:00,76.8,43.9,30.70,East,90,12.0,14.0,31,0.00,,,0.00,meteohub,2013-08-21 04:18:00,
2013-08-20 22:23:00,76.6,43.7,30.70,East,90,11.0,14.0,31,0.00,,,0.00,meteohub,2013-08-21 04:23:00,
2013-08-20 22:28:00,76.6,43.7,30.70,East,90,11.0,14.0,31,0.00,,,0.00,meteohub,2013-08-21 04:28:00,
2013-08-20 22:33:00,76.6,44.6,30.70,NE,45,11.0,14.0,32,0.00,,,0.00,meteohub,2013-08-21 04:33:00,
2013-08-20 22:38:00,76.6,43.7,30.70,East,90,11.0,13.0,31,0.00,,,0.00,meteohub,2013-08-21 04:38:00,
2013-08-20 22:43:00,76.6,44.6,30.70,East,90,11.0,13.0,32,0.00,,,0.00,meteohub,2013-08-21 04:43:00,
2013-08-20 22:48:00,76.5,44.4,30.70,East,90,13.0,13.0,32,0.00,,,0.00,meteohub,2013-08-21 04:48:00,
2013-08-20 22:53:00,76.5,44.4,30.70,East,90,12.0,15.0,32,0.00,,,0.00,meteohub,2013-08-21 04:53:00,
2013-08-20 22:58:00,76.5,44.4,30.69,East,90,11.0,15.0,32,0.00,,,0.00,meteohub,2013-08-21 04:58:00,
2013-08-20 23:03:00,76.5,44.4,30.70,East,90,11.0,15.0,32,0.00,,,0.00,meteohub,2013-08-21 05:03:00,
2013-08-20 23:08:00,76.3,44.2,30.70,East,90,11.0,14.0,32,0.00,,,0.00,meteohub,2013-08-21 05:08:00,
2013-08-20 23:13:00,76.3,44.2,30.70,East,90,11.0,13.0,32,0.00,,,0.00,meteohub,2013-08-21 05:13:00,
2013-08-20 23:18:00,76.3,44.2,30.70,East,90,9.0,13.0,32,0.00,,,0.00,meteohub,2013-08-21 05:18:00,
2013-08-20 23:23:00,76.3,44.2,30.70,ESE,113,11.0,13.0,32,0.00,,,0.00,meteohub,2013-08-21 05:23:00,
2013-08-20 23:29:00,75.9,43.9,30.70,East,90,11.0,12.0,32,0.00,,,0.00,meteohub,2013-08-21 05:29:00,
2013-08-20 23:34:00,75.9,43.9,30.70,East,90,11.0,13.0,32,0.00,,,0.00,meteohub,2013-08-21 05:34:00,
2013-08-20 23:39:00,75.9,43.9,30.70,East,90,11.0,14.0,32,0.00,,,0.00,meteohub,2013-08-21 05:39:00,
2013-08-20 23:44:00,76.3,44.2,30.69,East,90,10.0,14.0,32,0.00,,,0.00,meteohub,2013-08-21 05:44:00,
2013-08-20 23:49:00,75.9,43.9,30.70,East,90,9.0,14.0,32,0.00,,,0.00,meteohub,2013-08-21 05:49:00,
2013-08-20 23:54:00,76.3,44.2,30.70,East,90,9.0,12.0,32,0.00,,,0.00,meteohub,2013-08-21 05:54:00,
2013-08-20 23:59:00,76.3,44.2,30.69,East,90,10.0,12.0,32,0.00,,,0.00,meteohub,2013-08-21 05:59:00,